Time;durP1;ratioP1;P1;durP2;ratioP2;P2;SDS_P1;SDS_P2;PMS_P1;PMS_P2;Temp;Humidity;BMP_temperature;BMP_pressure;BME280_temperature;BME280_humidity;BME280_pressure;Samples;Min_cycle;Max_cycle;Signal;HPM_P1;HPM_P2
2021/11/06 00:01:19;;;;;;;1.42;0.60;;;6.40;99.90;;;;;;5033770;28;20185;-63
2021/11/06 00:03:47;;;;;;;0.80;0.50;;;6.40;99.90;;;;;;5032891;28;20209;-64
2021/11/06 00:06:15;;;;;;;1.65;0.60;;;6.40;99.90;;;;;;5033026;28;20356;-63
2021/11/06 00:08:44;;;;;;;0.93;0.70;;;6.40;99.90;;;;;;5032057;28;20198;-63
2021/11/06 00:11:12;;;;;;;0.90;0.70;;;6.40;99.90;;;;;;5032910;28;20196;-62
2021/11/06 00:13:42;;;;;;;0.80;0.40;;;6.40;99.90;;;;;;5015079;28;20225;-64
2021/11/06 00:16:10;;;;;;;0.80;0.50;;;6.30;99.90;;;;;;5014773;28;20224;-67
2021/11/06 00:18:39;;;;;;;1.13;0.90;;;6.30;99.90;;;;;;5032247;28;20243;-65
2021/11/06 00:21:07;;;;;;;1.02;0.50;;;6.30;99.90;;;;;;5032220;28;20718;-64
2021/11/06 00:23:36;;;;;;;0.90;0.63;;;6.40;99.90;;;;;;5032287;28;20280;-64
2021/11/06 00:26:04;;;;;;;1.25;0.82;;;6.40;99.90;;;;;;5014394;28;20181;-65
2021/11/06 00:28:32;;;;;;;0.80;0.60;;;6.50;99.90;;;;;;5032637;28;20186;-62
2021/11/06 00:31:02;;;;;;;5.35;1.27;;;6.60;99.90;;;;;;5015384;28;20563;-64
2021/11/06 00:33:31;;;;;;;0.80;0.50;;;6.60;99.90;;;;;;5032434;28;20225;-64
2021/11/06 00:35:59;;;;;;;0.80;0.50;;;6.70;99.90;;;;;;5032393;28;20193;-66
2021/11/06 00:38:27;;;;;;;0.80;0.50;;;6.80;99.90;;;;;;5032546;28;20183;-65
2021/11/06 00:40:56;;;;;;;0.90;0.70;;;6.80;99.90;;;;;;5032831;28;20189;-62
2021/11/06 00:43:24;;;;;;;1.75;0.70;;;6.80;99.90;;;;;;5032695;28;20216;-64
2021/11/06 00:45:53;;;;;;;0.90;0.55;;;6.80;99.90;;;;;;5032244;28;20490;-65
2021/11/06 00:48:23;;;;;;;1.10;0.60;;;6.80;99.90;;;;;;5032415;28;20240;-64
2021/11/06 00:50:51;;;;;;;1.00;0.70;;;6.80;99.90;;;;;;5032620;28;20200;-66
2021/11/06 00:53:19;;;;;;;0.80;0.50;;;6.80;99.90;;;;;;5032516;28;20214;-64
2021/11/06 00:55:47;;;;;;;1.17;0.85;;;6.80;99.90;;;;;;5032297;28;20173;-65
2021/11/06 00:58:15;;;;;;;4.88;1.00;;;6.80;99.90;;;;;;5031931;28;20208;-67
2021/11/06 01:00:44;;;;;;;1.88;0.68;;;6.90;99.90;;;;;;5032267;28;20555;-65
2021/11/06 01:03:12;;;;;;;2.72;0.93;;;6.90;99.90;;;;;;5031848;28;20771;-66
2021/11/06 01:05:41;;;;;;;0.80;0.60;;;6.90;99.90;;;;;;5033625;28;20196;-65
2021/11/06 01:08:11;;;;;;;0.90;0.75;;;6.90;99.90;;;;;;5034625;22;20633;31
2021/11/06 01:10:40;;;;;;;0.80;0.55;;;6.90;99.90;;;;;;5011211;28;20213;-64
2021/11/06 01:13:08;;;;;;;2.50;0.65;;;7.00;99.90;;;;;;5012470;28;20225;-63
2021/11/06 01:15:36;;;;;;;1.45;0.88;;;7.10;99.90;;;;;;5012405;28;20197;-65
2021/11/06 01:18:05;;;;;;;0.80;0.50;;;7.20;99.90;;;;;;5012370;28;20724;-65
2021/11/06 01:20:33;;;;;;;0.80;0.50;;;7.20;99.90;;;;;;5011800;28;20186;-66
2021/11/06 01:23:03;;;;;;;0.90;0.50;;;7.30;99.90;;;;;;5011411;28;20739;-65
2021/11/06 01:25:31;;;;;;;1.20;1.02;;;7.30;99.90;;;;;;5011475;28;20186;-65
2021/11/06 01:27:59;;;;;;;2.78;1.60;;;7.40;99.90;;;;;;5011388;28;20204;-66
2021/11/06 01:30:27;;;;;;;1.05;0.70;;;7.50;99.90;;;;;;5011487;28;20646;-65
2021/11/06 01:32:56;;;;;;;1.27;0.60;;;7.50;99.90;;;;;;5011460;28;20218;-66
2021/11/06 01:35:24;;;;;;;0.80;0.40;;;7.50;99.90;;;;;;5011925;28;20185;-65
2021/11/06 01:37:58;;;;;;;1.10;0.60;;;7.60;99.90;;;;;;5012200;28;20190;-66
2021/11/06 01:40:28;;;;;;;0.80;0.40;;;7.60;99.90;;;;;;5012008;28;20619;-64
2021/11/06 01:42:57;;;;;;;1.10;0.55;;;7.60;99.90;;;;;;5011510;28;20234;-65
2021/11/06 01:45:25;;;;;;;0.90;0.70;;;7.60;99.90;;;;;;5011530;28;20190;-65
2021/11/06 01:47:54;;;;;;;0.80;0.50;;;7.70;99.90;;;;;;5012259;28;20666;-66
2021/11/06 01:50:25;;;;;;;0.80;0.50;;;7.80;99.90;;;;;;5015469;28;20546;-66
2021/11/06 01:52:53;;;;;;;1.10;0.60;;;7.80;99.90;;;;;;5015040;28;20210;-65
2021/11/06 01:55:22;;;;;;;0.80;0.50;;;7.70;99.90;;;;;;5015258;28;20198;-66
2021/11/06 01:57:53;;;;;;;1.10;0.77;;;7.70;99.90;;;;;;5015239;28;20179;-66
2021/11/06 02:00:24;;;;;;;5.20;0.80;;;7.80;99.90;;;;;;5015243;28;20193;-65
2021/11/06 02:02:52;;;;;;;1.15;0.77;;;7.80;99.90;;;;;;5015264;28;20220;-66
2021/11/06 02:05:21;;;;;;;1.00;0.75;;;7.80;99.90;;;;;;5015303;28;20225;-66
2021/11/06 02:07:49;;;;;;;1.10;1.00;;;7.90;99.90;;;;;;5015084;28;20198;-64
2021/11/06 02:10:18;;;;;;;1.23;0.65;;;7.80;99.90;;;;;;5015332;28;20190;-66
2021/11/06 02:12:46;;;;;;;1.00;0.70;;;7.90;99.90;;;;;;5015287;28;20219;-66
2021/11/06 02:15:18;;;;;;;2.38;0.80;;;7.90;99.90;;;;;;5014903;28;20277;-66
2021/11/06 02:17:46;;;;;;;1.00;0.70;;;7.90;99.90;;;;;;5014740;28;20190;-65
2021/11/06 02:20:15;;;;;;;1.67;1.58;;;7.90;99.90;;;;;;5014893;28;20182;-66
2021/11/06 02:22:44;;;;;;;1.30;0.70;;;7.90;99.90;;;;;;5013610;28;20222;-65
2021/11/06 02:25:14;;;;;;;0.80;0.50;;;7.90;99.90;;;;;;5014620;28;20194;-66
2021/11/06 02:28:02;;;;;;;0.93;0.60;;;7.90;99.90;;;;;;5014596;28;20261;-65
2021/11/06 02:30:31;;;;;;;0.80;0.50;;;7.90;99.90;;;;;;5013404;28;20532;-66
2021/11/06 02:32:59;;;;;;;0.95;0.75;;;7.80;99.90;;;;;;5014377;28;20217;-66
2021/11/06 02:35:27;;;;;;;0.80;0.50;;;7.80;99.90;;;;;;5014302;28;20551;-66
2021/11/06 02:37:58;;;;;;;0.95;0.65;;;7.80;99.90;;;;;;5014376;28;20218;-65
2021/11/06 02:40:26;;;;;;;0.82;0.60;;;7.90;99.90;;;;;;5014487;28;20201;-65
2021/11/06 02:42:54;;;;;;;0.80;0.60;;;7.90;99.90;;;;;;5014497;28;20240;-66
2021/11/06 02:45:22;;;;;;;1.88;0.82;;;7.80;99.90;;;;;;5015731;28;20186;-66
2021/11/06 02:47:50;;;;;;;0.90;0.70;;;7.80;99.90;;;;;;5015835;28;20248;-66
2021/11/06 02:50:19;;;;;;;1.00;0.70;;;7.90;99.90;;;;;;5015870;28;20232;-66
2021/11/06 02:52:47;;;;;;;0.82;0.55;;;7.90;99.90;;;;;;5014553;28;20217;-66
2021/11/06 02:55:18;;;;;;;2.40;0.95;;;7.90;99.90;;;;;;5016218;28;20261;-66
2021/11/06 02:57:46;;;;;;;3.38;0.93;;;7.90;99.90;;;;;;5014896;28;20198;-63
2021/11/06 03:00:15;;;;;;;2.38;0.70;;;8.00;99.90;;;;;;5014104;28;20208;-64
2021/11/06 03:02:43;;;;;;;0.80;0.50;;;8.00;99.90;;;;;;5015550;28;20210;-67
2021/11/06 03:05:14;;;;;;;1.00;0.70;;;7.90;99.90;;;;;;5015110;28;20186;-65
2021/11/06 03:07:42;;;;;;;0.80;0.50;;;7.90;99.90;;;;;;5014223;28;20178;-65
2021/11/06 03:10:13;;;;;;;2.55;1.08;;;7.90;99.90;;;;;;5014034;28;20252;-63
2021/11/06 03:12:43;;;;;;;0.90;0.75;;;7.90;99.90;;;;;;5013848;28;20212;-66
2021/11/06 03:15:11;;;;;;;1.85;0.93;;;7.90;99.90;;;;;;5014178;28;20209;-66
2021/11/06 03:17:39;;;;;;;1.23;0.80;;;7.90;99.90;;;;;;5013688;28;20248;-66
2021/11/06 03:20:09;;;;;;;2.08;0.73;;;7.90;99.90;;;;;;5013628;28;20175;-66
2021/11/06 03:22:37;;;;;;;4.03;0.70;;;7.90;99.90;;;;;;5013593;28;20206;-65
2021/11/06 03:25:07;;;;;;;0.80;0.47;;;7.90;99.90;;;;;;5013490;28;20179;-64
2021/11/06 03:27:35;;;;;;;0.90;0.70;;;7.90;99.90;;;;;;5013373;28;20178;-64
2021/11/06 03:30:07;;;;;;;0.80;0.60;;;7.90;99.90;;;;;;5013864;28;20174;-64
2021/11/06 03:32:35;;;;;;;0.90;0.60;;;7.90;99.90;;;;;;5013362;28;20221;-67
2021/11/06 03:35:05;;;;;;;0.93;0.60;;;8.00;99.90;;;;;;5013244;28;20217;-65
2021/11/06 03:37:33;;;;;;;1.98;1.00;;;7.90;99.90;;;;;;5013426;28;20647;-65
2021/11/06 03:40:01;;;;;;;1.80;0.93;;;7.90;99.90;;;;;;5013216;28;20193;-64
2021/11/06 03:42:30;;;;;;;1.70;1.60;;;7.90;99.90;;;;;;5013101;28;20214;-66
2021/11/06 03:44:58;;;;;;;3.05;0.95;;;7.90;99.90;;;;;;5013239;28;20167;-66
2021/11/06 03:47:28;;;;;;;3.90;1.08;;;7.90;99.90;;;;;;5013325;28;20180;-67
2021/11/06 03:49:56;;;;;;;1.00;0.77;;;7.90;99.90;;;;;;5013160;28;20554;-66
2021/11/06 03:52:24;;;;;;;1.42;0.82;;;7.90;99.90;;;;;;5012932;28;20309;-66
2021/11/06 03:54:53;;;;;;;2.75;0.90;;;7.90;99.90;;;;;;5013119;28;20201;-66
2021/11/06 03:57:21;;;;;;;1.15;0.70;;;7.90;99.90;;;;;;5013404;28;20205;-66
2021/11/06 03:59:49;;;;;;;1.65;1.10;;;7.90;99.90;;;;;;5013678;28;20174;-63
2021/11/06 04:02:17;;;;;;;1.42;1.33;;;7.90;99.90;;;;;;5013422;28;20699;-65
2021/11/06 04:04:47;;;;;;;2.65;1.10;;;8.00;99.90;;;;;;5013685;28;20189;-65
2021/11/06 04:07:15;;;;;;;1.13;0.93;;;8.10;99.90;;;;;;5013232;28;20190;-66
2021/11/06 04:09:43;;;;;;;0.90;0.57;;;8.00;99.90;;;;;;5013578;28;20209;-66
2021/11/06 04:12:11;;;;;;;1.52;1.35;;;8.00;99.90;;;;;;5013137;28;20453;-66
2021/11/06 04:14:39;;;;;;;0.82;0.60;;;8.10;99.90;;;;;;5013290;28;20225;-65
2021/11/06 04:17:08;;;;;;;1.95;1.17;;;8.00;99.90;;;;;;5011923;28;20220;-64
2021/11/06 04:19:36;;;;;;;2.75;1.13;;;8.10;99.90;;;;;;5013659;28;20182;-65
2021/11/06 04:22:05;;;;;;;0.80;0.50;;;8.10;99.90;;;;;;5013372;28;20205;-64
2021/11/06 04:24:34;;;;;;;2.67;0.75;;;8.10;99.90;;;;;;5013774;28;20306;-65
2021/11/06 04:27:02;;;;;;;1.00;0.80;;;8.10;99.90;;;;;;5013197;28;20189;-64
2021/11/06 04:29:30;;;;;;;2.08;1.40;;;8.20;99.90;;;;;;5012678;28;20540;-64
2021/11/06 04:31:59;;;;;;;0.80;0.50;;;8.10;99.90;;;;;;5012358;28;20175;-65
2021/11/06 04:34:27;;;;;;;0.80;0.60;;;8.10;99.90;;;;;;5012272;28;20209;-65
2021/11/06 04:36:55;;;;;;;0.80;0.50;;;8.10;99.90;;;;;;5012043;28;20205;-65
2021/11/06 04:39:25;;;;;;;1.33;1.23;;;8.00;99.90;;;;;;5012007;28;20236;-64
2021/11/06 04:41:54;;;;;;;1.05;0.80;;;8.00;99.90;;;;;;5011798;28;20197;-65
2021/11/06 04:44:22;;;;;;;1.10;0.70;;;8.00;99.90;;;;;;5012222;28;20175;-65
2021/11/06 04:46:50;;;;;;;7.20;0.98;;;8.00;99.90;;;;;;5011900;28;20613;-65
2021/11/06 04:49:19;;;;;;;1.80;0.60;;;8.00;99.90;;;;;;5012068;28;20198;-63
2021/11/06 04:51:47;;;;;;;2.03;0.80;;;7.90;99.90;;;;;;5012234;28;20655;-65
2021/11/06 04:54:17;;;;;;;0.80;0.50;;;7.90;99.90;;;;;;5011759;28;20313;-65
2021/11/06 04:56:47;;;;;;;1.10;0.68;;;8.00;99.90;;;;;;5011770;28;20555;-65
2021/11/06 04:59:15;;;;;;;1.50;1.40;;;7.90;99.90;;;;;;5011905;28;20190;-64
2021/11/06 05:01:43;;;;;;;0.90;0.50;;;7.90;99.90;;;;;;5011930;28;20194;-65
2021/11/06 05:04:11;;;;;;;0.90;0.60;;;7.80;99.90;;;;;;5011794;28;20210;-66
2021/11/06 05:06:39;;;;;;;1.35;0.50;;;7.70;99.90;;;;;;5011651;28;20224;-64
2021/11/06 05:09:07;;;;;;;0.90;0.80;;;7.70;99.90;;;;;;5011599;28;20615;-65
2021/11/06 05:11:36;;;;;;;0.80;0.50;;;7.60;99.90;;;;;;5011994;28;20220;-66
2021/11/06 05:14:05;;;;;;;0.80;0.50;;;7.60;99.90;;;;;;5011756;28;20705;-66
2021/11/06 05:16:33;;;;;;;1.80;0.70;;;7.50;99.90;;;;;;5011717;28;20189;-65
2021/11/06 05:19:01;;;;;;;0.80;0.50;;;7.60;99.90;;;;;;5011731;28;20193;-65
2021/11/06 05:21:36;;;;;;;0.80;0.40;;;7.60;99.90;;;;;;5010065;28;20182;-65
2021/11/06 05:24:05;;;;;;;1.00;0.60;;;7.60;99.90;;;;;;5011349;28;20223;-65
2021/11/06 05:26:34;;;;;;;0.80;0.50;;;7.60;99.90;;;;;;5011733;28;20185;-65
2021/11/06 05:29:06;;;;;;;0.90;0.60;;;7.60;99.90;;;;;;5011754;28;20264;-65
2021/11/06 05:31:36;;;;;;;0.80;0.50;;;7.60;99.90;;;;;;5010559;28;20285;-65
2021/11/06 05:34:05;;;;;;;0.80;0.50;;;7.60;99.90;;;;;;5011544;28;20214;-65
2021/11/06 05:36:34;;;;;;;0.80;0.50;;;7.50;99.90;;;;;;5011656;28;20210;-66
2021/11/06 05:39:02;;;;;;;1.20;0.50;;;7.50;99.90;;;;;;5012014;28;20554;-65
2021/11/06 05:41:31;;;;;;;0.80;0.50;;;7.50;99.90;;;;;;5011585;28;20194;-66
2021/11/06 05:43:59;;;;;;;0.90;0.60;;;7.50;99.90;;;;;;5011514;28;20212;-66
2021/11/06 05:46:30;;;;;;;0.80;0.70;;;7.40;99.90;;;;;;5011305;28;20598;-66
2021/11/06 05:48:58;;;;;;;2.70;2.17;;;7.50;99.90;;;;;;5011302;28;20186;-64
2021/11/06 05:51:37;;;;;;;1.02;0.85;;;7.50;99.90;;;;;;5011539;28;20264;-66
2021/11/06 05:54:06;;;;;;;0.90;0.80;;;7.50;99.90;;;;;;5011353;28;20248;-66
2021/11/06 05:56:34;;;;;;;1.15;0.98;;;7.60;99.90;;;;;;5011182;28;20210;-64
2021/11/06 05:59:02;;;;;;;1.17;0.73;;;7.60;99.90;;;;;;5011422;28;20217;-65
2021/11/06 06:01:32;;;;;;;1.98;0.88;;;7.60;99.90;;;;;;5011459;28;20625;-65
2021/11/06 06:04:00;;;;;;;0.80;0.50;;;7.60;99.90;;;;;;5010000;28;20222;-65
2021/11/06 06:06:28;;;;;;;0.80;0.60;;;7.60;99.90;;;;;;5009886;28;20189;-65
2021/11/06 06:08:57;;;;;;;1.63;1.02;;;7.60;99.90;;;;;;5011345;28;20245;-66
2021/11/06 06:11:25;;;;;;;0.80;0.50;;;7.60;99.90;;;;;;5011183;28;20186;-65
2021/11/06 06:13:57;;;;;;;2.45;1.23;;;7.60;99.90;;;;;;5011127;28;20290;-65
2021/11/06 06:16:25;;;;;;;0.80;0.50;;;7.70;99.90;;;;;;5011536;28;20198;-66
2021/11/06 06:18:55;;;;;;;0.80;0.50;;;7.60;99.90;;;;;;5011595;28;20209;-66
2021/11/06 06:21:23;;;;;;;3.55;1.25;;;7.70;99.90;;;;;;5011321;28;20319;-65
2021/11/06 06:23:51;;;;;;;0.80;0.47;;;7.80;99.90;;;;;;5011318;28;20209;-65
2021/11/06 06:26:21;;;;;;;1.45;0.60;;;7.80;99.90;;;;;;5011305;28;20206;-64
2021/11/06 06:28:49;;;;;;;0.80;0.50;;;7.90;99.90;;;;;;5011564;28;20178;-64
2021/11/06 06:31:17;;;;;;;0.80;0.50;;;7.90;99.90;;;;;;5011271;28;20654;-65
2021/11/06 06:33:45;;;;;;;0.80;0.52;;;8.00;99.90;;;;;;5012940;28;20249;-66
2021/11/06 06:36:15;;;;;;;0.80;0.50;;;8.10;99.90;;;;;;5014460;28;20198;-64
2021/11/06 06:38:43;;;;;;;1.92;1.80;;;8.10;99.90;;;;;;5014462;28;20190;-64
2021/11/06 06:41:11;;;;;;;1.10;0.82;;;8.20;99.90;;;;;;5014691;28;20737;-64
2021/11/06 06:43:39;;;;;;;0.80;0.50;;;8.40;99.90;;;;;;5014312;28;20209;-66
2021/11/06 06:46:07;;;;;;;1.92;1.70;;;8.40;99.90;;;;;;5014243;28;20171;-66
2021/11/06 06:48:35;;;;;;;0.80;0.50;;;8.50;99.90;;;;;;5014271;28;20190;-66
2021/11/06 06:51:04;;;;;;;1.40;0.77;;;8.50;99.90;;;;;;5014497;28;20197;-66
2021/11/06 06:53:33;;;;;;;1.55;0.60;;;8.60;99.90;;;;;;5015137;28;20210;-66
2021/11/06 06:56:01;;;;;;;0.80;0.50;;;8.70;99.90;;;;;;5015220;28;20575;-64
2021/11/06 06:58:31;;;;;;;0.80;0.60;;;8.80;99.90;;;;;;5014948;28;20220;-65
2021/11/06 07:00:59;;;;;;;1.00;0.90;;;8.90;99.90;;;;;;5014963;28;20193;-64
2021/11/06 07:03:28;;;;;;;0.80;0.50;;;9.00;99.90;;;;;;5013992;28;20214;-64
2021/11/06 07:05:56;;;;;;;0.80;0.50;;;9.10;99.90;;;;;;5014182;28;20178;-66
2021/11/06 07:08:24;;;;;;;0.80;0.50;;;9.20;99.90;;;;;;5031740;22;20266;-65
2021/11/06 07:10:53;;;;;;;1.57;0.67;;;9.20;99.90;;;;;;5072852;28;20212;-64
2021/11/06 07:13:23;;;;;;;1.67;1.52;;;9.40;99.90;;;;;;5074500;28;20441;-68
2021/11/06 07:15:52;;;;;;;1.10;0.73;;;9.40;99.90;;;;;;5073708;28;20203;-66
2021/11/06 07:18:20;;;;;;;0.90;0.70;;;9.50;99.90;;;;;;5074136;28;20207;-65
2021/11/06 07:20:48;;;;;;;1.20;0.82;;;9.40;99.90;;;;;;5074094;28;20406;-66
2021/11/06 07:23:16;;;;;;;1.20;0.88;;;9.30;99.90;;;;;;5073302;28;20204;-66
2021/11/06 07:25:45;;;;;;;5.30;1.42;;;9.40;99.90;;;;;;5073277;28;20176;-67
2021/11/06 07:28:15;;;;;;;0.98;0.80;;;9.50;99.90;;;;;;5073475;28;20172;-66
2021/11/06 07:30:43;;;;;;;2.35;0.60;;;9.50;99.90;;;;;;5073148;28;20214;-66
2021/11/06 07:33:11;;;;;;;0.80;0.50;;;9.50;99.90;;;;;;5072734;28;20207;-65
2021/11/06 07:35:40;;;;;;;0.90;0.57;;;9.40;99.90;;;;;;5054626;28;20219;-67
2021/11/06 07:38:08;;;;;;;0.80;0.50;;;9.40;99.90;;;;;;5072703;28;20183;-66
2021/11/06 07:40:36;;;;;;;1.33;1.05;;;9.40;99.90;;;;;;5073055;28;20176;-64
2021/11/06 07:43:04;;;;;;;0.80;0.50;;;9.40;99.90;;;;;;5072871;28;20257;-67
2021/11/06 07:45:34;;;;;;;1.43;0.73;;;9.40;99.90;;;;;;5072140;28;20180;-68
2021/11/06 07:48:02;;;;;;;0.80;0.60;;;9.40;99.90;;;;;;5073147;28;20705;-65
2021/11/06 07:50:31;;;;;;;0.80;0.50;;;9.40;99.90;;;;;;5072859;28;20636;-66
2021/11/06 07:52:59;;;;;;;1.33;0.93;;;9.30;99.90;;;;;;5072868;28;20215;-67
2021/11/06 07:55:28;;;;;;;0.90;0.60;;;9.30;99.90;;;;;;5072980;28;20203;-64
2021/11/06 07:57:56;;;;;;;0.90;0.60;;;9.30;99.90;;;;;;5072732;28;20263;-63
2021/11/06 08:00:24;;;;;;;0.93;0.67;;;9.40;99.90;;;;;;5054888;28;20204;-64
2021/11/06 08:02:54;;;;;;;0.90;0.63;;;9.40;99.90;;;;;;5072502;28;20461;-66
2021/11/06 08:05:22;;;;;;;0.90;0.50;;;9.40;99.90;;;;;;5072810;28;20683;-63
2021/11/06 08:07:50;;;;;;;0.80;0.50;;;9.40;99.90;;;;;;5072730;28;20187;-64
2021/11/06 08:10:19;;;;;;;0.80;0.50;;;9.30;99.90;;;;;;5072816;28;20196;-65
2021/11/06 08:12:47;;;;;;;1.20;0.98;;;9.30;99.90;;;;;;5073068;28;20222;-65
2021/11/06 08:15:16;;;;;;;1.00;0.88;;;9.30;99.90;;;;;;5072470;28;20192;-66
2021/11/06 08:17:45;;;;;;;1.30;1.05;;;9.30;99.90;;;;;;5072258;28;20227;-65
2021/11/06 08:20:14;;;;;;;1.30;1.20;;;9.30;99.90;;;;;;5072645;28;20381;-68
2021/11/06 08:22:42;;;;;;;2.80;1.13;;;9.20;99.90;;;;;;5072715;28;20216;-66
2021/11/06 08:25:15;;;;;;;0.80;0.52;;;9.20;99.90;;;;;;5072496;28;20207;-67
2021/11/06 08:27:44;;;;;;;1.42;1.17;;;9.20;99.90;;;;;;5072702;28;20261;-68
2021/11/06 08:30:13;;;;;;;1.55;1.30;;;9.30;99.90;;;;;;5072367;28;20253;-67
2021/11/06 08:32:41;;;;;;;1.25;0.90;;;9.50;99.90;;;;;;5072411;28;20261;-66
2021/11/06 08:35:10;;;;;;;0.80;0.60;;;9.70;99.90;;;;;;5071919;28;20184;-65
2021/11/06 08:37:40;;;;;;;0.93;0.80;;;9.70;99.90;;;;;;5072012;28;20216;-65
2021/11/06 08:40:10;;;;;;;1.00;0.80;;;9.70;99.90;;;;;;5072165;28;20200;-68
2021/11/06 08:42:39;;;;;;;0.90;0.60;;;9.80;99.90;;;;;;5072167;28;20204;-66
2021/11/06 08:45:10;;;;;;;1.65;1.50;;;10.00;99.90;;;;;;5071886;28;20349;-67
2021/11/06 08:47:39;;;;;;;1.10;0.60;;;10.10;99.90;;;;;;5054290;28;20185;-65
2021/11/06 08:50:09;;;;;;;1.10;0.60;;;10.10;99.90;;;;;;5072302;28;20422;-67
2021/11/06 08:52:39;;;;;;;1.10;1.00;;;10.10;99.90;;;;;;5072217;28;20453;-66
2021/11/06 08:55:08;;;;;;;1.55;0.80;;;10.10;99.90;;;;;;5071830;28;20418;-66
2021/11/06 08:57:37;;;;;;;0.93;0.57;;;10.10;99.90;;;;;;5072041;28;20487;-67
2021/11/06 09:00:08;;;;;;;0.80;0.50;;;10.20;99.90;;;;;;5071917;28;20449;-65
2021/11/06 09:02:37;;;;;;;0.90;0.50;;;10.30;99.90;;;;;;5072067;28;20420;-67
2021/11/06 09:05:08;;;;;;;1.50;1.30;;;10.20;99.90;;;;;;5072075;28;20423;-65
2021/11/06 09:07:37;;;;;;;1.15;0.70;;;10.20;99.90;;;;;;5072197;28;20418;-66
2021/11/06 09:10:10;;;;;;;0.90;0.52;;;10.20;99.90;;;;;;5072338;28;20280;-65
2021/11/06 09:12:39;;;;;;;0.90;0.70;;;10.20;99.90;;;;;;5072406;28;20216;-65
2021/11/06 09:15:08;;;;;;;1.10;1.00;;;10.30;99.90;;;;;;5072340;28;20791;-67
2021/11/06 09:17:36;;;;;;;1.87;1.10;;;10.30;99.90;;;;;;5074018;28;20499;-66
2021/11/06 09:20:06;;;;;;;1.20;1.07;;;10.40;99.90;;;;;;5072636;28;20934;-66
2021/11/06 09:22:35;;;;;;;2.55;1.63;;;10.40;99.90;;;;;;5055976;28;20549;-66
2021/11/06 09:25:03;;;;;;;1.00;0.80;;;10.40;99.90;;;;;;5074713;28;20180;-66
2021/11/06 09:27:33;;;;;;;1.20;0.97;;;10.50;99.90;;;;;;5076584;28;20502;-66
2021/11/06 09:30:02;;;;;;;1.20;1.00;;;10.50;99.90;;;;;;5075624;28;20898;-66
2021/11/06 09:32:30;;;;;;;1.13;0.80;;;10.60;99.90;;;;;;5074404;28;20477;-65
2021/11/06 09:34:59;;;;;;;0.90;0.70;;;10.60;99.90;;;;;;5073147;28;20458;-66
2021/11/06 09:37:27;;;;;;;1.67;1.00;;;10.60;99.90;;;;;;5071484;28;20469;-66
2021/11/06 09:39:56;;;;;;;1.43;0.80;;;10.60;99.90;;;;;;5071352;28;20422;-67
2021/11/06 09:42:24;;;;;;;0.80;0.50;;;10.60;99.90;;;;;;5071804;28;20480;-67
2021/11/06 09:44:53;;;;;;;1.23;1.13;;;10.60;99.90;;;;;;5071895;28;20377;-66
2021/11/06 09:47:22;;;;;;;1.53;1.03;;;10.60;99.90;;;;;;5072142;28;20402;-66
2021/11/06 09:49:50;;;;;;;2.40;0.80;;;10.60;99.90;;;;;;5075218;28;20509;-65
2021/11/06 09:52:19;;;;;;;1.00;0.90;;;10.60;99.90;;;;;;5073092;28;20803;-66
2021/11/06 09:54:47;;;;;;;1.90;1.80;;;10.60;99.90;;;;;;5071862;28;20984;-65
2021/11/06 09:57:15;;;;;;;0.90;0.60;;;10.60;99.90;;;;;;5071689;28;20825;-67
2021/11/06 09:59:43;;;;;;;0.80;0.50;;;10.60;99.90;;;;;;5071960;28;20429;-65
2021/11/06 10:02:13;;;;;;;0.90;0.60;;;10.70;99.90;;;;;;5072096;28;20476;-65
2021/11/06 10:04:41;;;;;;;1.57;1.37;;;10.70;99.90;;;;;;5071521;28;20426;-65
2021/11/06 10:07:21;;;;;;;0.87;0.50;;;10.90;99.90;;;;;;5073122;28;20579;-67
2021/11/06 10:09:59;;;;;;;1.77;1.53;;;11.00;99.90;;;;;;5075127;28;20436;-66
2021/11/06 10:12:44;;;;;;;1.27;0.60;;;10.90;99.90;;;;;;5076376;28;20879;-67
2021/11/06 10:15:12;;;;;;;0.90;0.60;;;11.00;99.90;;;;;;5075412;28;20513;-65
2021/11/06 10:17:42;;;;;;;1.00;0.70;;;11.20;99.90;;;;;;5075593;28;20465;-67
2021/11/06 10:20:19;;;;;;;1.17;1.07;;;11.20;99.90;;;;;;5057573;28;20434;-67
2021/11/06 10:22:47;;;;;;;0.90;0.50;;;11.30;99.90;;;;;;5075192;28;20449;-66
2021/11/06 10:25:18;;;;;;;2.10;0.90;;;11.40;99.90;;;;;;5074962;28;20737;-69
2021/11/06 10:27:50;;;;;;;0.80;0.50;;;11.40;99.90;;;;;;5074983;28;20414;-65
2021/11/06 10:30:24;;;;;;;0.90;0.57;;;11.60;99.90;;;;;;5074843;28;20476;-65
2021/11/06 10:33:04;;;;;;;1.10;0.50;;;11.70;99.90;;;;;;5074453;28;20427;-69
2021/11/06 10:35:34;;;;;;;1.00;0.60;;;11.80;99.90;;;;;;5074819;28;20791;-67
2021/11/06 10:38:06;;;;;;;0.90;0.73;;;12.00;99.90;;;;;;5074609;28;20768;-67
2021/11/06 10:40:40;;;;;;;1.10;0.90;;;11.90;99.90;;;;;;5074676;28;20404;-68
2021/11/06 10:43:10;;;;;;;0.80;0.40;;;12.10;99.90;;;;;;5074641;28;20538;-67
2021/11/06 10:45:46;;;;;;;1.47;1.07;;;12.20;99.90;;;;;;5074676;28;20406;-67
2021/11/06 10:48:18;;;;;;;1.67;0.80;;;12.00;99.90;;;;;;5074681;28;20907;-65
2021/11/06 10:50:53;;;;;;;1.20;0.90;;;12.00;99.90;;;;;;5074496;28;20509;-66
2021/11/06 10:53:39;;;;;;;0.90;0.57;;;12.10;99.90;;;;;;5074333;28;20487;-67
2021/11/06 10:56:27;;;;;;;1.27;1.10;;;12.00;99.90;;;;;;5074160;28;20510;-67
2021/11/06 10:58:57;;;;;;;1.53;1.33;;;12.00;99.90;;;;;;5074228;28;21021;-67
2021/11/06 11:01:28;;;;;;;0.90;0.60;;;12.30;99.90;;;;;;5074556;28;20959;-66
2021/11/06 11:04:02;;;;;;;0.80;0.50;;;12.50;99.90;;;;;;5074122;28;20470;-66
2021/11/06 11:06:37;;;;;;;2.40;0.70;;;12.50;99.90;;;;;;5074044;28;20460;-66
2021/11/06 11:09:10;;;;;;;0.90;0.70;;;12.40;99.90;;;;;;5073900;28;21063;-66
2021/11/06 11:11:39;;;;;;;2.23;1.73;;;12.20;99.90;;;;;;5074629;28;20401;-67
2021/11/06 11:14:10;;;;;;;0.90;0.50;;;12.20;99.90;;;;;;5074561;28;20965;-67
2021/11/06 11:16:40;;;;;;;1.13;0.63;;;12.00;99.90;;;;;;5055751;28;20496;-66
2021/11/06 11:19:10;;;;;;;0.90;0.50;;;12.00;99.90;;;;;;5073926;28;20970;-65
2021/11/06 11:21:42;;;;;;;1.40;0.73;;;11.90;99.90;;;;;;5073062;28;20425;-66
2021/11/06 11:24:12;;;;;;;1.00;0.60;;;12.00;99.90;;;;;;5073754;28;20454;-65
2021/11/06 11:26:42;;;;;;;1.40;1.30;;;12.10;99.90;;;;;;5074330;28;20784;-66
2021/11/06 11:29:13;;;;;;;2.87;1.60;;;12.10;99.90;;;;;;5073916;28;20422;-66
2021/11/06 11:31:43;;;;;;;1.10;1.00;;;12.10;99.90;;;;;;5073696;28;20513;-67
2021/11/06 11:34:13;;;;;;;0.97;0.60;;;12.10;99.90;;;;;;5073652;28;20413;-68
2021/11/06 11:36:43;;;;;;;0.90;0.60;;;11.80;99.90;;;;;;5073476;28;20403;-67
2021/11/06 11:39:13;;;;;;;0.90;0.60;;;11.70;99.90;;;;;;5074055;28;20803;-68
2021/11/06 11:42:07;;;;;;;0.90;0.50;;;11.60;99.90;;;;;;5055939;28;20438;-68
2021/11/06 11:45:03;;;;;;;0.80;0.50;;;11.90;99.90;;;;;;5073699;28;20381;-67
2021/11/06 11:47:37;;;;;;;1.10;0.73;;;11.90;99.90;;;;;;5073850;28;20414;-67
2021/11/06 11:50:12;;;;;;;0.83;0.57;;;11.90;99.90;;;;;;5074266;28;20439;-68
2021/11/06 11:52:43;;;;;;;0.90;0.60;;;11.80;99.90;;;;;;5073828;28;20535;-68
2021/11/06 11:55:14;;;;;;;1.00;0.50;;;11.90;99.90;;;;;;5074188;28;20442;-68
2021/11/06 11:57:44;;;;;;;0.80;0.50;;;11.90;99.90;;;;;;5074220;28;20509;-67
2021/11/06 12:00:50;;;;;;;1.00;0.63;;;11.70;99.90;;;;;;5074437;28;20429;-64
2021/11/06 12:03:34;;;;;;;0.90;0.50;;;11.70;99.90;;;;;;5074189;28;20801;-67
2021/11/06 12:06:21;;;;;;;0.90;0.50;;;11.60;99.90;;;;;;5074019;28;20422;-66
2021/11/06 12:08:49;;;;;;;1.47;1.37;;;11.70;99.90;;;;;;5074199;28;20513;-66
2021/11/06 12:11:26;;;;;;;0.90;0.50;;;11.60;99.90;;;;;;5074231;28;20441;-67
2021/11/06 12:13:58;;;;;;;1.10;0.70;;;11.60;99.90;;;;;;5073880;28;20469;-67
2021/11/06 12:16:42;;;;;;;0.83;0.50;;;11.70;99.90;;;;;;5074312;28;20789;-66
2021/11/06 12:19:11;;;;;;;0.83;0.60;;;11.80;99.90;;;;;;5073569;28;20441;-65
2021/11/06 12:21:44;;;;;;;0.90;0.60;;;11.90;99.90;;;;;;5073667;28;20513;-67
2021/11/06 12:24:29;;;;;;;0.80;0.50;;;12.00;99.90;;;;;;5073310;28;20451;-67
2021/11/06 12:27:00;;;;;;;0.80;0.50;;;11.90;99.90;;;;;;5073504;28;20426;-65
2021/11/06 12:29:37;;;;;;;1.20;0.70;;;12.00;99.90;;;;;;5073347;28;20460;-66
2021/11/06 12:32:32;;;;;;;1.07;0.80;;;12.00;99.90;;;;;;5072586;28;20804;-65
2021/11/06 12:35:17;;;;;;;1.00;0.60;;;12.10;99.90;;;;;;5073112;28;20999;-66
2021/11/06 12:38:00;;;;;;;0.80;0.40;;;12.10;99.90;;;;;;5073049;28;20422;-65
2021/11/06 12:40:53;;;;;;;0.90;0.60;;;12.10;99.90;;;;;;5073945;28;20775;-68
2021/11/06 12:43:25;;;;;;;0.80;0.40;;;12.00;99.90;;;;;;5072394;28;20477;-66
2021/11/06 12:45:56;;;;;;;1.03;0.77;;;11.90;99.90;;;;;;5072372;28;20777;-65
2021/11/06 12:48:31;;;;;;;1.40;0.50;;;11.80;99.90;;;;;;5072502;28;20421;-66
2021/11/06 12:51:07;;;;;;;0.80;0.50;;;11.80;99.90;;;;;;5072164;28;20428;-66
2021/11/06 12:53:38;;;;;;;0.80;0.50;;;12.00;99.90;;;;;;5072185;28;20441;-68
2021/11/06 12:56:10;;;;;;;0.90;0.57;;;12.20;99.90;;;;;;5072389;28;20917;-67
2021/11/06 12:58:41;;;;;;;0.80;0.50;;;12.30;99.90;;;;;;5072245;28;21234;-66
2021/11/06 13:01:27;;;;;;;1.10;0.90;;;12.30;99.90;;;;;;5072154;28;20394;-66
2021/11/06 13:03:56;;;;;;;0.90;0.60;;;12.20;99.90;;;;;;5072026;28;20806;-65
2021/11/06 13:06:28;;;;;;;0.80;0.50;;;12.30;99.90;;;;;;5072236;28;20422;-66
2021/11/06 13:09:16;;;;;;;1.00;0.60;;;12.40;99.90;;;;;;5086795;22;20535;-66